Time;durP1;ratioP1;P1;durP2;ratioP2;P2;SDS_P1;SDS_P2;PMS_P1;PMS_P2;Temp;Humidity;BMP_temperature;BMP_pressure;BME280_temperature;BME280_humidity;BME280_pressure;Samples;Min_cycle;Max_cycle;Signal;HPM_P1;HPM_P2
2022/04/27 00:00:16;;;;;;;;;;;;;;;;;;5032142;28;1918;-70
2022/04/27 00:02:42;;;;;;;;;;;;;;;;;;5031794;28;1071;-71
2022/04/27 00:05:09;;;;;;;;;;;;;;;;;;5031795;28;1361;-70
2022/04/27 00:07:35;;;;;;;;;;;;;;;;;;5030794;28;905;-70
2022/04/27 00:10:02;;;;;;;;;;;;;;;;;;5030754;28;802;-70
2022/04/27 00:12:28;;;;;;;;;;;;;;;;;;5030936;28;743;-70
2022/04/27 00:14:56;;;;;;;;;;;;;;;;;;5030365;28;1341;-71
2022/04/27 00:17:22;;;;;;;;;;;;;;;;;;5030998;28;1012;-71
2022/04/27 00:19:48;;;;;;;;;;;;;;;;;;5030699;28;1915;-71
2022/04/27 00:22:14;;;;;;;;;;;;;;;;;;5031057;28;847;-71
2022/04/27 00:24:41;;;;;;;;;;;;;;;;;;5030841;28;1281;-71
2022/04/27 00:27:07;;;;;;;;;;;;;;;;;;5030668;28;818;-71
2022/04/27 00:29:33;;;;;;;;;;;;;;;;;;5029340;28;1040;-71
2022/04/27 00:32:01;;;;;;;;;;;;;;;;;;5030865;28;727;-71
2022/04/27 00:34:27;;;;;;;;;;;;;;;;;;5029316;28;1357;-70
2022/04/27 00:36:53;;;;;;;;;;;;;;;;;;5030748;28;1123;-71
2022/04/27 00:39:19;;;;;;;;;;;;;;;;;;5030472;28;1914;-70
2022/04/27 00:41:59;;;;;;;;;;;;;;;;;;5029363;28;1064;-70
2022/04/27 00:44:26;;;;;;;;;;;;;;;;;;5029461;28;1361;-71
2022/04/27 00:46:52;;;;;;;;;;;;;;;;;;5029393;28;1104;-70
2022/04/27 00:49:19;;;;;;;;;;;;;;;;;;5030461;28;794;-71
2022/04/27 00:51:46;;;;;;;;;;;;;;;;;;5029479;28;1095;-71
2022/04/27 00:54:12;;;;;;;;;;;;;;;;;;5029634;28;2251;-70
2022/04/27 00:56:38;;;;;;;;;;;;;;;;;;5029126;28;1546;-71
2022/04/27 00:59:04;;;;;;;;;;;;;;;;;;5030363;28;1981;-71
2022/04/27 01:01:31;;;;;;;;;;;;;;;;;;5029061;28;1192;-71
2022/04/27 01:03:57;;;;;;;;;;;;;;;;;;5030764;28;1290;-70
2022/04/27 01:06:25;;;;;;;;;;;;;;;;;;5029366;28;1328;-70
2022/04/27 01:08:51;;;;;;;;;;;;;;;;;;5028955;28;1322;-71
2022/04/27 01:11:17;;;;;;;;;;;;;;;;;;5030636;28;783;-71
2022/04/27 01:13:52;;;;;;;;;;;;;;;;;;5029475;28;1459;-70
2022/04/27 01:16:19;;;;;;;;;;;;;;;;;;5028766;28;1617;-71
2022/04/27 01:18:46;;;;;;;;;;;;;;;;;;5030309;28;749;-71
2022/04/27 01:21:13;;;;;;;;;;;;;;;;;;5028766;28;1941;-72
2022/04/27 01:23:46;;;;;;;;;;;;;;;;;;5029209;28;1262;-69
2022/04/27 01:26:12;;;;;;;;;;;;;;;;;;5028718;28;1380;-69
2022/04/27 01:28:39;;;;;;;;;;;;;;;;;;5030393;28;774;-71
2022/04/27 01:31:06;;;;;;;;;;;;;;;;;;5029444;28;961;-70
2022/04/27 01:33:34;;;;;;;;;;;;;;;;;;5028969;28;1576;-70
2022/04/27 01:36:00;;;;;;;;;;;;;;;;;;5030537;28;846;-70
2022/04/27 01:38:28;;;;;;;;;;;;;;;;;;5028531;28;973;-71
2022/04/27 01:40:55;;;;;;;;;;;;;;;;;;5029994;28;1985;-71
2022/04/27 01:43:24;;;;;;;;;;;;;;;;;;5029839;28;1324;-70
2022/04/27 01:45:50;;;;;;;;;;;;;;;;;;5029080;28;1231;-71
2022/04/27 01:48:17;;;;;;;;;;;;;;;;;;5030674;28;799;-70
2022/04/27 01:50:43;;;;;;;;;;;;;;;;;;5027449;28;2076;-69
2022/04/27 01:55:55;;;;;;;;;;;;;;;;;;5044004;28;994;-71
2022/04/27 01:58:22;;;;;;;;;;;;;;;;;;5040985;28;1263;-71
2022/04/27 02:00:52;;;;;;;;;;;;;;;;;;5048503;28;1907;-71
2022/04/27 02:03:20;;;;;;;;;;;;;;;;;;5048310;28;1365;-70
2022/04/27 02:05:47;;;;;;;;;;;;;;;;;;5049889;28;845;-71
2022/04/27 02:08:13;;;;;;;;;;;;;;;;;;5049603;28;809;-71
2022/04/27 02:10:39;;;;;;;;;;;;;;;;;;5047087;28;1359;-70
2022/04/27 02:13:08;;;;;;;;;;;;;;;;;;5065037;28;1372;-71
2022/04/27 02:15:35;;;;;;;;;;;;;;;;;;5065608;28;1556;-72
2022/04/27 02:18:13;;;;;;;;;;;;;;;;;;5048320;28;938;-71
2022/04/27 02:20:39;;;;;;;;;;;;;;;;;;5049403;28;1910;-71
2022/04/27 02:23:05;;;;;;;;;;;;;;;;;;5048580;28;1481;-71
2022/04/27 02:25:31;;;;;;;;;;;;;;;;;;5048767;28;1466;-71
2022/04/27 02:27:58;;;;;;;;;;;;;;;;;;5049220;28;833;-71
2022/04/27 02:30:26;;;;;;;;;;;;;;;;;;5048395;28;1411;-71
2022/04/27 02:32:52;;;;;;;;;;;;;;;;;;5048287;28;1396;-71
2022/04/27 02:35:19;;;;;;;;;;;;;;;;;;5048216;28;2272;-70
2022/04/27 02:37:47;;;;;;;;;;;;;;;;;;5050231;28;1212;-71
2022/04/27 02:40:14;;;;;;;;;;;;;;;;;;5051907;28;1948;-70
2022/04/27 02:42:40;;;;;;;;;;;;;;;;;;5051784;28;1225;-71
2022/04/27 02:45:07;;;;;;;;;;;;;;;;;;5051626;28;1320;-71
2022/04/27 02:47:38;;;;;;;;;;;;;;;;;;5084394;22;3776;-68
2022/04/27 02:52:56;;;;;;;;;;;;;;;;;;5051244;28;1183;-72
2022/04/27 02:55:26;;;;;;;;;;;;;;;;;;5051626;28;1293;-69
2022/04/27 02:57:53;;;;;;;;;;;;;;;;;;5052634;28;1375;-70
2022/04/27 03:00:20;;;;;;;;;;;;;;;;;;5068342;28;1910;-69
2022/04/27 03:02:47;;;;;;;;;;;;;;;;;;5068140;28;1241;-70
2022/04/27 03:05:14;;;;;;;;;;;;;;;;;;5068250;28;1360;-70
2022/04/27 03:07:41;;;;;;;;;;;;;;;;;;5067895;28;1317;-70
2022/04/27 03:10:08;;;;;;;;;;;;;;;;;;5067874;28;972;-70
2022/04/27 03:12:35;;;;;;;;;;;;;;;;;;5068006;28;1335;-69
2022/04/27 03:15:02;;;;;;;;;;;;;;;;;;5068104;28;1188;-70
2022/04/27 03:17:29;;;;;;;;;;;;;;;;;;5068269;28;1589;-70
2022/04/27 03:19:58;;;;;;;;;;;;;;;;;;5068137;28;1910;-69
2022/04/27 03:22:25;;;;;;;;;;;;;;;;;;5057071;28;1467;-69
2022/04/27 03:24:51;;;;;;;;;;;;;;;;;;5012657;28;755;-70
2022/04/27 03:27:20;;;;;;;;;;;;;;;;;;5011134;28;1314;-69
2022/04/27 03:29:48;;;;;;;;;;;;;;;;;;5011730;28;1269;-69
2022/04/27 03:32:15;;;;;;;;;;;;;;;;;;5027908;28;1396;-70
2022/04/27 03:34:48;;;;;;;;;;;;;;;;;;5011320;28;1288;-70
2022/04/27 03:37:16;;;;;;;;;;;;;;;;;;5011155;28;1168;-69
2022/04/27 03:39:42;;;;;;;;;;;;;;;;;;5011820;28;1601;-70
2022/04/27 03:42:11;;;;;;;;;;;;;;;;;;5011130;28;1918;-69
2022/04/27 03:44:38;;;;;;;;;;;;;;;;;;5011055;28;1349;-69
2022/04/27 03:47:04;;;;;;;;;;;;;;;;;;5010616;28;1353;-70
2022/04/27 03:49:33;;;;;;;;;;;;;;;;;;5027221;28;1420;-69
2022/04/27 03:52:01;;;;;;;;;;;;;;;;;;5011024;28;1301;-70
2022/04/27 03:54:28;;;;;;;;;;;;;;;;;;5009784;28;1495;-70
2022/04/27 03:56:55;;;;;;;;;;;;;;;;;;5011084;28;1180;-71
2022/04/27 03:59:21;;;;;;;;;;;;;;;;;;5010204;28;1322;-69
2022/04/27 04:01:48;;;;;;;;;;;;;;;;;;5010448;28;1981;-70
2022/04/27 04:04:17;;;;;;;;;;;;;;;;;;5028700;28;1341;-70
2022/04/27 04:06:43;;;;;;;;;;;;;;;;;;5028979;28;1199;-71
2022/04/27 04:09:10;;;;;;;;;;;;;;;;;;5028789;28;1443;-70
2022/04/27 04:11:38;;;;;;;;;;;;;;;;;;5028666;28;2140;-70
2022/04/27 04:14:23;;;;;;;;;;;;;;;;;;5028263;28;623;-70
2022/04/27 04:16:53;;;;;;;;;;;;;;;;;;5029362;28;861;-70
2022/04/27 04:19:29;;;;;;;;;;;;;;;;;;5027919;28;1511;-71
2022/04/27 04:22:19;;;;;;;;;;;;;;;;;;5027662;28;1983;-70
2022/04/27 04:30:30;;;;;;;;;;;;;;;;;;5025054;28;1579;-71
2022/04/27 04:33:16;;;;;;;;;;;;;;;;;;5040209;28;1459;-71
2022/04/27 04:35:48;;;;;;;;;;;;;;;;;;5019485;28;1395;-71
2022/04/27 04:38:15;;;;;;;;;;;;;;;;;;5017807;28;1590;-71
2022/04/27 04:40:42;;;;;;;;;;;;;;;;;;5019406;28;1976;-71
2022/04/27 04:43:10;;;;;;;;;;;;;;;;;;5007502;28;1396;-71
2022/04/27 04:45:38;;;;;;;;;;;;;;;;;;5011809;28;1469;-71
2022/04/27 04:48:24;;;;;;;;;;;;;;;;;;5027224;28;1486;-71
2022/04/27 04:51:09;;;;;;;;;;;;;;;;;;5020046;28;1687;-71
2022/04/27 04:53:56;;;;;;;;;;;;;;;;;;5009844;28;1526;-71
2022/04/27 04:56:27;;;;;;;;;;;;;;;;;;5020321;28;1380;-71
2022/04/27 04:59:20;;;;;;;;;;;;;;;;;;5004644;28;1538;-71
2022/04/27 05:02:05;;;;;;;;;;;;;;;;;;5018654;28;1985;-71
2022/04/27 05:04:47;;;;;;;;;;;;;;;;;;5022127;28;1597;-71
2022/04/27 05:07:32;;;;;;;;;;;;;;;;;;5013242;28;1402;-71
2022/04/27 05:10:19;;;;;;;;;;;;;;;;;;5013343;28;1653;-71
2022/04/27 05:12:57;;;;;;;;;;;;;;;;;;5019353;28;1455;-69
2022/04/27 05:15:42;;;;;;;;;;;;;;;;;;5017758;28;1430;-72
2022/04/27 05:18:18;;;;;;;;;;;;;;;;;;5016236;28;1450;-71
2022/04/27 05:21:13;;;;;;;;;;;;;;;;;;5044008;28;1910;-71
2022/04/27 05:24:12;;;;;;;;;;;;;;;;;;5022773;28;1445;-71
2022/04/27 05:27:07;;;;;;;;;;;;;;;;;;5032391;28;1539;-72
2022/04/27 05:32:27;;;;;;;;;;;;;;;;;;5018032;28;1642;-71
2022/04/27 05:35:12;;;;;;;;;;;;;;;;;;5008834;28;1145;-71
2022/04/27 05:38:02;;;;;;;;;;;;;;;;;;5010435;28;1446;-70
2022/04/27 05:40:43;;;;;;;;;;;;;;;;;;4997071;28;1964;-70
2022/04/27 05:43:28;;;;;;;;;;;;;;;;;;5022012;28;963;-72
2022/04/27 05:46:20;;;;;;;;;;;;;;;;;;4997338;28;1739;-71
2022/04/27 05:49:00;;;;;;;;;;;;;;;;;;5016414;28;1502;-72
2022/04/27 05:51:51;;;;;;;;;;;;;;;;;;5014798;28;1542;-71
2022/04/27 05:54:31;;;;;;;;;;;;;;;;;;5014023;28;1761;-71
2022/04/27 05:57:21;;;;;;;;;;;;;;;;;;5013820;28;1626;-70
2022/04/27 06:00:13;;;;;;;;;;;;;;;;;;5025261;28;1571;-72
2022/04/27 06:02:42;;;;;;;;;;;;;;;;;;5017679;28;1965;-72
2022/04/27 06:05:11;;;;;;;;;;;;;;;;;;5019125;28;1460;-71
2022/04/27 06:07:39;;;;;;;;;;;;;;;;;;5012436;28;1520;-72
2022/04/27 06:10:10;;;;;;;;;;;;;;;;;;5027968;28;1578;-72
2022/04/27 06:12:46;;;;;;;;;;;;;;;;;;5014902;28;1204;-72
2022/04/27 06:15:38;;;;;;;;;;;;;;;;;;5009770;28;1783;-72
2022/04/27 06:18:13;;;;;;;;;;;;;;;;;;5012178;28;1404;-71
2022/04/27 06:20:43;;;;;;;;;;;;;;;;;;5017000;28;2042;-71
2022/04/27 06:23:10;;;;;;;;;;;;;;;;;;5025400;28;1476;-70
2022/04/27 06:25:39;;;;;;;;;;;;;;;;;;5033791;28;1304;-70
2022/04/27 06:28:10;;;;;;;;;;;;;;;;;;5016289;28;1797;-70
2022/04/27 06:30:38;;;;;;;;;;;;;;;;;;5016778;28;1261;-72
2022/04/27 06:33:05;;;;;;;;;;;;;;;;;;5019288;28;1821;-73
2022/04/27 06:35:31;;;;;;;;;;;;;;;;;;5021607;28;1583;-71
2022/04/27 06:38:07;;;;;;;;;;;;;;;;;;5037247;28;1856;-71
2022/04/27 06:40:33;;;;;;;;;;;;;;;;;;5023657;28;1195;-71
2022/04/27 06:43:00;;;;;;;;;;;;;;;;;;5029177;28;1933;-71
2022/04/27 06:45:45;;;;;;;;;;;;;;;;;;5024814;28;1126;-71
2022/04/27 06:48:32;;;;;;;;;;;;;;;;;;5031293;28;1768;-71
2022/04/27 06:51:18;;;;;;;;;;;;;;;;;;5023216;28;964;-71
2022/04/27 06:54:24;;;;;;;;;;;;;;;;;;4969280;28;1788;-69
2022/04/27 06:57:25;;;;;;;;;;;;;;;;;;4913938;29;1481;-71
2022/04/27 07:00:00;;;;;;;;;;;;;;;;;;4999314;28;1541;-72
2022/04/27 07:02:28;;;;;;;;;;;;;;;;;;5031409;28;1983;-71
2022/04/27 07:04:59;;;;;;;;;;;;;;;;;;5028574;28;1876;-71
2022/04/27 07:07:26;;;;;;;;;;;;;;;;;;5025200;28;1571;-71
2022/04/27 07:09:53;;;;;;;;;;;;;;;;;;5012807;28;1474;-71
2022/04/27 07:12:19;;;;;;;;;;;;;;;;;;5025903;28;1382;-71
2022/04/27 07:14:46;;;;;;;;;;;;;;;;;;5015776;28;1573;-71
2022/04/27 07:17:12;;;;;;;;;;;;;;;;;;5023758;28;1289;-71
2022/04/27 07:19:38;;;;;;;;;;;;;;;;;;5025114;28;1570;-71
2022/04/27 07:22:05;;;;;;;;;;;;;;;;;;5016743;28;2011;-71
2022/04/27 07:24:31;;;;;;;;;;;;;;;;;;5024951;28;1851;-72
2022/04/27 07:26:59;;;;;;;;;;;;;;;;;;5023624;28;1466;-72
2022/04/27 07:29:25;;;;;;;;;;;;;;;;;;5038540;28;1541;-71
2022/04/27 07:31:51;;;;;;;;;;;;;;;;;;5026923;28;1676;-71
2022/04/27 07:34:18;;;;;;;;;;;;;;;;;;5014820;28;1868;-71
2022/04/27 07:36:44;;;;;;;;;;;;;;;;;;5023429;28;1055;-71
2022/04/27 07:39:10;;;;;;;;;;;;;;;;;;5013392;28;1627;-71
2022/04/27 07:41:36;;;;;;;;;;;;;;;;;;5022477;28;1910;-70
2022/04/27 07:44:06;;;;;;;;;;;;;;;;;;5015725;28;1439;-70
2022/04/27 07:46:32;;;;;;;;;;;;;;;;;;5020095;28;1133;-70
2022/04/27 07:48:58;;;;;;;;;;;;;;;;;;5014142;28;1789;-70
2022/04/27 07:51:24;;;;;;;;;;;;;;;;;;5018428;28;1545;-70
2022/04/27 07:53:51;;;;;;;;;;;;;;;;;;5023226;28;1972;-70
2022/04/27 07:56:17;;;;;;;;;;;;;;;;;;5030772;28;1414;-71
2022/04/27 07:58:43;;;;;;;;;;;;;;;;;;5019869;28;1535;-69
2022/04/27 08:01:10;;;;;;;;;;;;;;;;;;5024994;28;1972;-71
2022/04/27 08:03:37;;;;;;;;;;;;;;;;;;5029569;28;1546;-70
2022/04/27 08:06:04;;;;;;;;;;;;;;;;;;5020347;28;1581;-70
2022/04/27 08:08:30;;;;;;;;;;;;;;;;;;5011514;28;1329;-68
2022/04/27 08:10:56;;;;;;;;;;;;;;;;;;5011419;28;1656;-70
2022/04/27 08:13:22;;;;;;;;;;;;;;;;;;5022800;28;1839;-71
2022/04/27 08:15:49;;;;;;;;;;;;;;;;;;5015928;28;1546;-70
2022/04/27 08:18:17;;;;;;;;;;;;;;;;;;5019818;28;1830;-70
2022/04/27 08:23:34;;;;;;;;;;;;;;;;;;4996045;28;1980;-70
2022/04/27 08:26:01;;;;;;;;;;;;;;;;;;5023180;28;1585;-70
2022/04/27 08:28:27;;;;;;;;;;;;;;;;;;5022815;28;1704;-71
2022/04/27 08:30:54;;;;;;;;;;;;;;;;;;5008732;28;1530;-69
2022/04/27 08:33:22;;;;;;;;;;;;;;;;;;5032076;28;1578;-71
2022/04/27 08:35:48;;;;;;;;;;;;;;;;;;5008422;28;1789;-70
2022/04/27 08:38:15;;;;;;;;;;;;;;;;;;5018205;28;1527;-70
2022/04/27 08:40:41;;;;;;;;;;;;;;;;;;5023565;28;1747;-70
2022/04/27 08:43:09;;;;;;;;;;;;;;;;;;5013566;28;1918;-70
2022/04/27 08:45:36;;;;;;;;;;;;;;;;;;5016707;28;1557;-70
2022/04/27 08:48:02;;;;;;;;;;;;;;;;;;5016082;28;1439;-70
2022/04/27 08:50:30;;;;;;;;;;;;;;;;;;5048795;22;3083;-71
2022/04/27 08:52:56;;;;;;;;;;;;;;;;;;5038741;28;1647;-70
2022/04/27 08:55:23;;;;;;;;;;;;;;;;;;5047893;28;1526;-68
2022/04/27 08:57:49;;;;;;;;;;;;;;;;;;5032982;28;1137;-68
2022/04/27 09:00:16;;;;;;;;;;;;;;;;;;5049945;28;1799;-70
2022/04/27 09:02:42;;;;;;;;;;;;;;;;;;5037123;28;1918;-71
2022/04/27 09:05:09;;;;;;;;;;;;;;;;;;5037981;28;1165;-70
2022/04/27 09:07:38;;;;;;;;;;;;;;;;;;5033009;28;1506;-69
2022/04/27 09:10:05;;;;;;;;;;;;;;;;;;5037733;28;1511;-70
2022/04/27 09:12:31;;;;;;;;;;;;;;;;;;5033175;28;1846;-70
2022/04/27 09:14:58;;;;;;;;;;;;;;;;;;5040663;28;1526;-70
2022/04/27 09:23:08;;;;;;;;;;;;;;;;;;5005739;28;1922;-70
2022/04/27 09:25:34;;;;;;;;;;;;;;;;;;5024034;28;1570;-70
2022/04/27 09:28:01;;;;;;;;;;;;;;;;;;5047465;28;1739;-70
2022/04/27 09:30:28;;;;;;;;;;;;;;;;;;5041029;28;1486;-70
2022/04/27 09:32:54;;;;;;;;;;;;;;;;;;5037449;28;1557;-71
2022/04/27 09:35:29;;;;;;;;;;;;;;;;;;5037252;28;1576;-71
2022/04/27 09:37:55;;;;;;;;;;;;;;;;;;5058920;28;1456;-71
2022/04/27 09:40:22;;;;;;;;;;;;;;;;;;5034531;28;1819;-71
2022/04/27 09:42:59;;;;;;;;;;;;;;;;;;5041253;28;1910;-71
2022/04/27 09:45:25;;;;;;;;;;;;;;;;;;5030259;28;1815;-71
2022/04/27 09:47:53;;;;;;;;;;;;;;;;;;5042227;28;1157;-71
2022/04/27 09:50:19;;;;;;;;;;;;;;;;;;5045987;28;1779;-69
2022/04/27 09:52:46;;;;;;;;;;;;;;;;;;5047972;28;1787;-71
2022/04/27 09:55:12;;;;;;;;;;;;;;;;;;5042480;28;1632;-70
2022/04/27 09:57:40;;;;;;;;;;;;;;;;;;5038210;28;1624;-71
2022/04/27 10:00:07;;;;;;;;;;;;;;;;;;5042406;28;1504;-71
2022/04/27 10:02:44;;;;;;;;;;;;;;;;;;5035973;28;1918;-69
2022/04/27 10:05:10;;;;;;;;;;;;;;;;;;5043895;28;1445;-70
2022/04/27 10:07:36;;;;;;;;;;;;;;;;;;5040034;28;1459;-71
2022/04/27 10:10:03;;;;;;;;;;;;;;;;;;5045776;28;1510;-71
2022/04/27 10:12:29;;;;;;;;;;;;;;;;;;5039526;28;1461;-71
2022/04/27 10:14:59;;;;;;;;;;;;;;;;;;5042747;28;1573;-71
2022/04/27 10:17:25;;;;;;;;;;;;;;;;;;5039489;28;990;-72
2022/04/27 10:19:51;;;;;;;;;;;;;;;;;;5043730;28;1862;-71
2022/04/27 10:22:24;;;;;;;;;;;;;;;;;;5038719;28;1906;-72
2022/04/27 10:24:50;;;;;;;;;;;;;;;;;;5043589;28;1783;-71
2022/04/27 10:27:18;;;;;;;;;;;;;;;;;;5046441;28;1509;-73
2022/04/27 10:29:45;;;;;;;;;;;;;;;;;;5043137;28;1540;-71
2022/04/27 10:32:13;;;;;;;;;;;;;;;;;;5037159;28;1545;-73
2022/04/27 10:34:39;;;;;;;;;;;;;;;;;;5036428;28;1795;-72
2022/04/27 10:37:05;;;;;;;;;;;;;;;;;;5035139;28;1474;-71
2022/04/27 10:39:32;;;;;;;;;;;;;;;;;;5044255;28;1277;-72
2022/04/27 10:42:16;;;;;;;;;;;;;;;;;;5034856;28;1906;-72
2022/04/27 10:45:02;;;;;;;;;;;;;;;;;;5050691;28;1450;-69
2022/04/27 10:47:34;;;;;;;;;;;;;;;;;;5043334;28;1475;-71
2022/04/27 10:50:15;;;;;;;;;;;;;;;;;;5042410;28;1365;-71
2022/04/27 10:52:42;;;;;;;;;;;;;;;;;;5034893;28;1526;-72
2022/04/27 10:55:09;;;;;;;;;;;;;;;;;;5046382;28;1349;-72
2022/04/27 10:57:41;;;;;;;;;;;;;;;;;;5042175;28;1501;-72
2022/04/27 11:00:08;;;;;;;;;;;;;;;;;;5041486;28;1505;-71
2022/04/27 11:02:36;;;;;;;;;;;;;;;;;;5042546;28;1918;-72
2022/04/27 11:05:02;;;;;;;;;;;;;;;;;;5037880;28;1584;-72
2022/04/27 11:07:32;;;;;;;;;;;;;;;;;;5040452;28;1189;-71
2022/04/27 11:10:10;;;;;;;;;;;;;;;;;;5034438;28;1462;-71
2022/04/27 11:12:36;;;;;;;;;;;;;;;;;;5039287;28;1576;-72
2022/04/27 11:15:03;;;;;;;;;;;;;;;;;;5042452;28;1541;-71
2022/04/27 11:17:29;;;;;;;;;;;;;;;;;;5043111;28;1584;-72
2022/04/27 11:19:57;;;;;;;;;;;;;;;;;;5035726;28;2246;-71
2022/04/27 11:22:23;;;;;;;;;;;;;;;;;;5046507;28;2024;-73
2022/04/27 11:24:49;;;;;;;;;;;;;;;;;;5038459;28;1341;-70
2022/04/27 11:27:22;;;;;;;;;;;;;;;;;;5051196;28;901;-71
2022/04/27 11:29:48;;;;;;;;;;;;;;;;;;5030982;28;1302;-71
2022/04/27 11:32:15;;;;;;;;;;;;;;;;;;5031070;28;1177;-72
2022/04/27 11:34:41;;;;;;;;;;;;;;;;;;5031440;28;1007;-70
2022/04/27 11:37:16;;;;;;;;;;;;;;;;;;5031629;28;906;-72
2022/04/27 11:39:43;;;;;;;;;;;;;;;;;;5031792;28;1332;-71
2022/04/27 11:42:12;;;;;;;;;;;;;;;;;;5031390;28;1132;-71
2022/04/27 11:44:38;;;;;;;;;;;;;;;;;;5031603;28;1991;-70
2022/04/27 11:47:04;;;;;;;;;;;;;;;;;;5031853;28;802;-71
2022/04/27 11:49:30;;;;;;;;;;;;;;;;;;5031665;28;1337;-72
2022/04/27 11:51:56;;;;;;;;;;;;;;;;;;5030442;28;1163;-72
2022/04/27 11:54:31;;;;;;;;;;;;;;;;;;5031185;28;1293;-71
2022/04/27 11:57:00;;;;;;;;;;;;;;;;;;5031005;28;952;-72
2022/04/27 11:59:26;;;;;;;;;;;;;;;;;;5031408;28;1292;-72
2022/04/27 12:01:53;;;;;;;;;;;;;;;;;;5039281;28;1553;-70
2022/04/27 12:04:19;;;;;;;;;;;;;;;;;;5036721;28;1934;-71
2022/04/27 12:06:45;;;;;;;;;;;;;;;;;;5038580;28;1605;-72
2022/04/27 12:09:15;;;;;;;;;;;;;;;;;;5049957;28;1456;-72
2022/04/27 12:11:43;;;;;;;;;;;;;;;;;;5043303;28;1184;-72
2022/04/27 12:14:09;;;;;;;;;;;;;;;;;;5036587;28;1473;-72
2022/04/27 12:16:35;;;;;;;;;;;;;;;;;;5036330;28;1200;-72
2022/04/27 12:19:01;;;;;;;;;;;;;;;;;;5038766;28;1763;-72
2022/04/27 12:21:29;;;;;;;;;;;;;;;;;;5037062;28;1641;-72
2022/04/27 12:23:56;;;;;;;;;;;;;;;;;;5035018;28;1918;-72
2022/04/27 12:26:22;;;;;;;;;;;;;;;;;;5049769;28;1576;-72
2022/04/27 12:28:50;;;;;;;;;;;;;;;;;;5034123;28;1264;-72
2022/04/27 12:31:17;;;;;;;;;;;;;;;;;;5050980;28;1259;-72
2022/04/27 12:33:44;;;;;;;;;;;;;;;;;;5050384;28;1734;-69
2022/04/27 12:38:58;;;;;;;;;;;;;;;;;;5029212;28;1197;-72
2022/04/27 12:41:34;;;;;;;;;;;;;;;;;;5042805;28;1295;-72
2022/04/27 12:44:08;;;;;;;;;;;;;;;;;;5044150;28;1922;-72
2022/04/27 12:46:34;;;;;;;;;;;;;;;;;;5036180;28;1943;-73
2022/04/27 12:49:01;;;;;;;;;;;;;;;;;;5038675;28;1133;-72
2022/04/27 12:51:28;;;;;;;;;;;;;;;;;;5031201;28;1892;-70
2022/04/27 12:53:54;;;;;;;;;;;;;;;;;;5040528;28;1780;-72
2022/04/27 12:56:22;;;;;;;;;;;;;;;;;;5044612;28;1589;-72
2022/04/27 12:59:01;;;;;;;;;;;;;;;;;;5039288;28;1585;-72
2022/04/27 13:01:29;;;;;;;;;;;;;;;;;;5048606;28;1526;-73
2022/04/27 13:03:55;;;;;;;;;;;;;;;;;;5032709;28;1935;-72
2022/04/27 13:06:22;;;;;;;;;;;;;;;;;;5041499;28;1793;-71
2022/04/27 13:08:48;;;;;;;;;;;;;;;;;;5034030;28;1208;-71
2022/04/27 13:13:58;;;;;;;;;;;;;;;;;;5044336;28;1586;-70
2022/04/27 13:16:25;;;;;;;;;;;;;;;;;;5041674;28;1563;-71
2022/04/27 13:18:52;;;;;;;;;;;;;;;;;;5038013;28;1125;-73
2022/04/27 13:21:18;;;;;;;;;;;;;;;;;;5040116;28;1794;-68
2022/04/27 13:23:45;;;;;;;;;;;;;;;;;;5039342;28;1973;-71
2022/04/27 13:26:11;;;;;;;;;;;;;;;;;;5039972;28;1569;-70
2022/04/27 13:28:40;;;;;;;;;;;;;;;;;;5038876;28;1803;-71
2022/04/27 13:31:06;;;;;;;;;;;;;;;;;;5037663;28;1653;-71
2022/04/27 13:33:33;;;;;;;;;;;;;;;;;;5045591;28;1759;-71
2022/04/27 13:36:00;;;;;;;;;;;;;;;;;;5047834;28;1201;-72
2022/04/27 13:38:27;;;;;;;;;;;;;;;;;;5040640;28;1323;-72
2022/04/27 13:40:54;;;;;;;;;;;;;;;;;;5024525;28;1543;-72
2022/04/27 13:43:20;;;;;;;;;;;;;;;;;;5038071;28;1914;-72
2022/04/27 13:45:46;;;;;;;;;;;;;;;;;;5045981;28;1110;-71
2022/04/27 13:48:12;;;;;;;;;;;;;;;;;;5040346;28;1830;-70
2022/04/27 13:50:39;;;;;;;;;;;;;;;;;;5047084;28;1849;-71
2022/04/27 13:53:06;;;;;;;;;;;;;;;;;;5037236;28;2092;-71
2022/04/27 13:55:35;;;;;;;;;;;;;;;;;;5041252;28;1280;-72
2022/04/27 13:58:01;;;;;;;;;;;;;;;;;;5037887;28;1362;-72
2022/04/27 14:00:28;;;;;;;;;;;;;;;;;;5036897;28;1394;-71
2022/04/27 14:02:54;;;;;;;;;;;;;;;;;;5039995;28;1307;-72
2022/04/27 14:05:20;;;;;;;;;;;;;;;;;;5039703;28;1915;-71
2022/04/27 14:07:46;;;;;;;;;;;;;;;;;;5034601;28;1517;-71
2022/04/27 14:10:14;;;;;;;;;;;;;;;;;;5043600;28;1411;-71
2022/04/27 14:15:24;;;;;;;;;;;;;;;;;;5046412;28;1045;-71
2022/04/27 14:20:40;;;;;;;;;;;;;;;;;;5036703;28;1411;-71
2022/04/27 14:23:06;;;;;;;;;;;;;;;;;;5039513;28;1973;-70
2022/04/27 14:25:35;;;;;;;;;;;;;;;;;;5035032;28;1153;-72
2022/04/27 14:28:01;;;;;;;;;;;;;;;;;;5030438;28;1763;-71
2022/04/27 14:30:27;;;;;;;;;;;;;;;;;;5035824;28;1401;-71
2022/04/27 14:32:53;;;;;;;;;;;;;;;;;;5036957;28;1795;-72
2022/04/27 14:35:19;;;;;;;;;;;;;;;;;;5041611;28;1544;-72
2022/04/27 14:37:46;;;;;;;;;;;;;;;;;;5043611;28;2243;-71
2022/04/27 14:40:12;;;;;;;;;;;;;;;;;;5044338;28;1487;-72
2022/04/27 14:42:40;;;;;;;;;;;;;;;;;;5036272;28;1002;-72
2022/04/27 14:45:07;;;;;;;;;;;;;;;;;;5048291;28;1989;-72
2022/04/27 14:47:33;;;;;;;;;;;;;;;;;;5039556;28;1366;-72
2022/04/27 14:50:00;;;;;;;;;;;;;;;;;;5041178;28;1874;-71
2022/04/27 14:52:26;;;;;;;;;;;;;;;;;;5041147;28;1691;-71
2022/04/27 14:54:52;;;;;;;;;;;;;;;;;;5050536;22;4289;-71
2022/04/27 14:57:18;;;;;;;;;;;;;;;;;;5029297;28;1518;-72
2022/04/27 14:59:46;;;;;;;;;;;;;;;;;;5025902;28;1482;-72
2022/04/27 15:02:12;;;;;;;;;;;;;;;;;;5030997;28;1422;-73
2022/04/27 15:04:39;;;;;;;;;;;;;;;;;;5031459;28;1968;-71
2022/04/27 15:07:05;;;;;;;;;;;;;;;;;;5026143;28;1682;-71
2022/04/27 15:09:31;;;;;;;;;;;;;;;;;;5030420;28;1522;-74
2022/04/27 15:11:57;;;;;;;;;;;;;;;;;;5031095;28;1550;-73
2022/04/27 15:14:23;;;;;;;;;;;;;;;;;;5026110;28;1850;-72
2022/04/27 15:16:51;;;;;;;;;;;;;;;;;;5031227;28;1500;-73
2022/04/27 15:19:17;;;;;;;;;;;;;;;;;;5031311;28;1823;-72
2022/04/27 15:24:28;;;;;;;;;;;;;;;;;;5032165;28;1914;-73
2022/04/27 15:27:00;;;;;;;;;;;;;;;;;;5030805;28;1482;-73
2022/04/27 15:29:27;;;;;;;;;;;;;;;;;;5032005;28;1130;-73
2022/04/27 15:31:55;;;;;;;;;;;;;;;;;;5029852;28;1867;-71
2022/04/27 15:34:21;;;;;;;;;;;;;;;;;;5029891;28;1702;-70
2022/04/27 15:36:47;;;;;;;;;;;;;;;;;;5030720;28;1482;-71
2022/04/27 15:39:13;;;;;;;;;;;;;;;;;;5029769;28;1400;-72
2022/04/27 15:41:40;;;;;;;;;;;;;;;;;;5031267;28;1475;-71
2022/04/27 15:44:06;;;;;;;;;;;;;;;;;;5031917;28;1985;-71
2022/04/27 15:46:33;;;;;;;;;;;;;;;;;;5030930;28;1788;-72
2022/04/27 15:49:00;;;;;;;;;;;;;;;;;;5031694;28;1118;-71
2022/04/27 15:51:26;;;;;;;;;;;;;;;;;;5026605;28;1863;-71
2022/04/27 15:53:53;;;;;;;;;;;;;;;;;;5025342;28;1542;-72
2022/04/27 15:56:19;;;;;;;;;;;;;;;;;;5029859;28;1843;-72
2022/04/27 15:58:45;;;;;;;;;;;;;;;;;;5032255;28;1185;-72
2022/04/27 16:01:11;;;;;;;;;;;;;;;;;;5032701;28;1470;-73
2022/04/27 16:03:38;;;;;;;;;;;;;;;;;;5030745;28;1914;-72
2022/04/27 16:06:06;;;;;;;;;;;;;;;;;;5031502;28;1072;-71
2022/04/27 16:08:32;;;;;;;;;;;;;;;;;;5031798;28;992;-73
2022/04/27 16:10:59;;;;;;;;;;;;;;;;;;5032087;28;750;-72
2022/04/27 16:13:25;;;;;;;;;;;;;;;;;;5030332;28;1397;-72
2022/04/27 16:15:51;;;;;;;;;;;;;;;;;;5031281;28;787;-73
2022/04/27 16:18:17;;;;;;;;;;;;;;;;;;5031784;28;1103;-73
2022/04/27 16:23:07;;;;;;;;;;;;;;;;;;5030706;28;1500;-72
2022/04/27 16:23:30;;;;;;;;;;;;;;;;;;5024166;28;1381;-72
2022/04/27 16:25:57;;;;;;;;;;;;;;;;;;5030235;28;2037;-72
2022/04/27 16:28:26;;;;;;;;;;;;;;;;;;5028594;28;1376;-73
2022/04/27 16:30:52;;;;;;;;;;;;;;;;;;5028850;28;1404;-72
2022/04/27 16:33:18;;;;;;;;;;;;;;;;;;5028215;28;1380;-72
2022/04/27 16:35:44;;;;;;;;;;;;;;;;;;5029268;28;1153;-72
2022/04/27 16:38:11;;;;;;;;;;;;;;;;;;5025955;28;1434;-72
2022/04/27 16:40:38;;;;;;;;;;;;;;;;;;5015814;28;1094;-73
2022/04/27 16:43:04;;;;;;;;;;;;;;;;;;5022519;28;1160;-71
2022/04/27 16:45:30;;;;;;;;;;;;;;;;;;5029029;28;1911;-73
2022/04/27 16:47:57;;;;;;;;;;;;;;;;;;5026718;28;1815;-73
2022/04/27 16:50:23;;;;;;;;;;;;;;;;;;5027515;28;1193;-73
2022/04/27 16:52:49;;;;;;;;;;;;;;;;;;5027563;28;1411;-73
2022/04/27 16:55:15;;;;;;;;;;;;;;;;;;5032022;28;1651;-74
2022/04/27 16:57:43;;;;;;;;;;;;;;;;;;5036285;28;1376;-73
2022/04/27 17:02:53;;;;;;;;;;;;;;;;;;5028548;28;1375;-71
2022/04/27 17:05:20;;;;;;;;;;;;;;;;;;5027275;28;1995;-71
2022/04/27 17:07:47;;;;;;;;;;;;;;;;;;5036167;28;1403;-72
2022/04/27 17:10:13;;;;;;;;;;;;;;;;;;5029263;28;1585;-71
2022/04/27 17:12:39;;;;;;;;;;;;;;;;;;5027219;28;1657;-72
2022/04/27 17:15:08;;;;;;;;;;;;;;;;;;5011081;28;1443;-73
2022/04/27 17:17:34;;;;;;;;;;;;;;;;;;5017133;28;1392;-74
2022/04/27 17:20:00;;;;;;;;;;;;;;;;;;5028059;28;1336;-72
2022/04/27 17:22:27;;;;;;;;;;;;;;;;;;5022204;28;1234;-73
2022/04/27 17:24:53;;;;;;;;;;;;;;;;;;5028336;28;1914;-72
2022/04/27 17:27:29;;;;;;;;;;;;;;;;;;5023956;28;1383;-73
2022/04/27 17:29:55;;;;;;;;;;;;;;;;;;5024803;28;1430;-72
2022/04/27 17:32:23;;;;;;;;;;;;;;;;;;5027981;28;1114;-72
2022/04/27 17:34:49;;;;;;;;;;;;;;;;;;5027346;28;1585;-71
2022/04/27 17:37:16;;;;;;;;;;;;;;;;;;5024562;28;1340;-72
2022/04/27 17:39:42;;;;;;;;;;;;;;;;;;5028214;28;1118;-72
2022/04/27 17:44:49;;;;;;;;;;;;;;;;;;5022737;28;1922;-72
2022/04/27 17:47:15;;;;;;;;;;;;;;;;;;5037454;28;1455;-71
2022/04/27 17:49:42;;;;;;;;;;;;;;;;;;5039544;28;1431;-72
2022/04/27 17:52:09;;;;;;;;;;;;;;;;;;5030949;28;1122;-73
2022/04/27 17:54:35;;;;;;;;;;;;;;;;;;5027027;28;1458;-72
2022/04/27 17:57:01;;;;;;;;;;;;;;;;;;5027681;28;1114;-72